Time;durP1;ratioP1;P1;durP2;ratioP2;P2;SDS_P1;SDS_P2;PMS_P1;PMS_P2;Temp;Humidity;BMP_temperature;BMP_pressure;BME280_temperature;BME280_humidity;BME280_pressure;Samples;Min_cycle;Max_cycle;Signal;HPM_P1;HPM_P2
2021/12/20 00:00:38;;;;;;;31.10;11.87;;;;;;;;;;5115453;28;20899;-74
2021/12/20 00:03:05;;;;;;;25.73;11.10;;;;;;;;;;5115754;28;20945;-73
2021/12/20 00:05:32;;;;;;;27.70;13.30;;;;;;;;;;5115206;28;20827;-73
2021/12/20 00:08:01;;;;;;;36.73;12.20;;;;;;;;;;5115711;28;20450;-73
2021/12/20 00:10:28;;;;;;;21.20;12.27;;;;;;;;;;5115310;28;20461;-73
2021/12/20 00:12:55;;;;;;;32.10;13.10;;;;;;;;;;5115384;28;20449;-72
2021/12/20 00:15:22;;;;;;;17.93;8.57;;;;;;;;;;5114593;28;20477;-73
2021/12/20 00:17:49;;;;;;;29.00;13.50;;;;;;;;;;5115348;28;20458;-73
2021/12/20 00:20:17;;;;;;;22.97;11.20;;;;;;;;;;5115259;28;20454;-72
2021/12/20 00:22:44;;;;;;;30.33;11.60;;;;;;;;;;5115021;28;21012;-72
2021/12/20 00:25:13;;;;;;;29.90;12.30;;;;;;;;;;5114929;28;20833;-72
2021/12/20 00:27:40;;;;;;;26.23;12.57;;;;;;;;;;5115041;28;20811;-72
2021/12/20 00:30:07;;;;;;;31.17;12.50;;;;;;;;;;5114938;28;20827;-72
2021/12/20 00:32:35;;;;;;;28.33;13.70;;;;;;;;;;5114743;28;20457;-72
2021/12/20 00:35:02;;;;;;;41.43;16.43;;;;;;;;;;5114812;28;20485;-72
2021/12/20 00:40:22;;;;;;;28.47;12.53;;;;;;;;;;5114904;28;20798;-72
2021/12/20 00:42:49;;;;;;;31.43;12.27;;;;;;;;;;5114879;28;20490;-73
2021/12/20 00:45:17;;;;;;;27.03;11.80;;;;;;;;;;5114453;28;20465;-73
2021/12/20 00:47:44;;;;;;;23.63;11.80;;;;;;;;;;5114722;28;20454;-72
2021/12/20 00:50:13;;;;;;;24.77;13.73;;;;;;;;;;5114677;28;20438;-72
2021/12/20 00:52:40;;;;;;;26.93;11.97;;;;;;;;;;5114551;28;20442;-73
2021/12/20 00:55:08;;;;;;;33.07;14.27;;;;;;;;;;5114301;28;20466;-72
2021/12/20 00:57:37;;;;;;;31.23;12.97;;;;;;;;;;5114452;28;20827;-73
2021/12/20 01:00:05;;;;;;;27.93;12.10;;;;;;;;;;5114428;28;20450;-73
2021/12/20 01:02:32;;;;;;;29.27;12.67;;;;;;;;;;5114263;28;21005;-73
2021/12/20 01:04:59;;;;;;;31.10;14.07;;;;;;;;;;5114122;28;20476;-73
2021/12/20 01:07:26;;;;;;;29.67;13.60;;;;;;;;;;5114267;28;20465;-73
2021/12/20 01:09:57;;;;;;;25.97;11.70;;;;;;;;;;5114474;28;20456;-73
2021/12/20 01:12:28;;;;;;;28.60;12.47;;;;;;;;;;5114239;28;20441;-73
2021/12/20 01:14:59;;;;;;;29.17;14.00;;;;;;;;;;5113521;28;20934;-73
2021/12/20 01:17:26;;;;;;;30.10;15.13;;;;;;;;;;5114036;28;20550;-73
2021/12/20 01:19:53;;;;;;;23.73;10.83;;;;;;;;;;5114106;28;20984;-72
2021/12/20 01:22:20;;;;;;;26.90;13.07;;;;;;;;;;5113858;28;20627;-73
2021/12/20 01:24:47;;;;;;;31.70;14.60;;;;;;;;;;5113647;28;20469;-73
2021/12/20 01:27:15;;;;;;;27.73;13.40;;;;;;;;;;5113978;28;20446;-73
2021/12/20 01:29:42;;;;;;;29.23;13.13;;;;;;;;;;5113910;28;20788;-73
2021/12/20 01:32:10;;;;;;;31.27;15.17;;;;;;;;;;5113756;28;20454;-73
2021/12/20 01:34:38;;;;;;;27.93;13.30;;;;;;;;;;5113315;28;20465;-73
2021/12/20 01:37:05;;;;;;;35.40;13.00;;;;;;;;;;5113867;28;20450;-73
2021/12/20 01:39:32;;;;;;;26.90;13.40;;;;;;;;;;5113628;28;20790;-73
2021/12/20 01:42:02;;;;;;;30.30;12.73;;;;;;;;;;5113003;28;20488;-73
2021/12/20 01:44:30;;;;;;;31.10;12.63;;;;;;;;;;5113267;28;20473;-73
2021/12/20 01:47:00;;;;;;;36.70;14.90;;;;;;;;;;5113646;28;20496;-73
2021/12/20 01:49:31;;;;;;;34.93;13.30;;;;;;;;;;5113685;28;20454;-73
2021/12/20 01:52:09;;;;;;;29.60;14.50;;;;;;;;;;5113532;28;20450;-73
2021/12/20 01:54:37;;;;;;;25.77;13.47;;;;;;;;;;5113179;28;20852;-73
2021/12/20 01:57:04;;;;;;;25.97;12.27;;;;;;;;;;5113552;28;20442;-73
2021/12/20 01:59:31;;;;;;;29.37;13.93;;;;;;;;;;5113327;28;20453;-73
2021/12/20 02:01:59;;;;;;;24.40;11.03;;;;;;;;;;5113498;28;20496;-73
2021/12/20 02:04:27;;;;;;;31.40;11.67;;;;;;;;;;5113280;28;20473;-73
2021/12/20 02:06:56;;;;;;;28.23;12.27;;;;;;;;;;5113522;28;20449;-73
2021/12/20 02:09:23;;;;;;;29.40;13.70;;;;;;;;;;5113252;28;20460;-73
2021/12/20 02:11:51;;;;;;;24.70;11.33;;;;;;;;;;5113612;28;20816;-73
2021/12/20 02:14:19;;;;;;;26.43;12.17;;;;;;;;;;5113044;28;20568;-74
2021/12/20 02:16:46;;;;;;;34.07;13.93;;;;;;;;;;5112916;28;20800;-73
2021/12/20 02:19:14;;;;;;;25.87;13.00;;;;;;;;;;5113481;28;20450;-73
2021/12/20 02:21:45;;;;;;;28.07;13.37;;;;;;;;;;5113208;28;20485;-73
2021/12/20 02:24:12;;;;;;;24.00;12.70;;;;;;;;;;5113058;28;20477;-73
2021/12/20 02:26:40;;;;;;;35.80;11.93;;;;;;;;;;5113141;28;20453;-73
2021/12/20 02:29:09;;;;;;;23.80;13.83;;;;;;;;;;5113430;28;20807;-73
2021/12/20 02:39:57;;;;;;;23.13;10.63;;;;;;;;;;5107040;28;20993;-73
2021/12/20 02:42:30;;;;;;;20.90;11.10;;;;;;;;;;5113102;28;20485;-73
2021/12/20 02:45:10;;;;;;;20.53;10.80;;;;;;;;;;5112952;28;20846;-73
2021/12/20 02:47:38;;;;;;;21.10;11.00;;;;;;;;;;5112998;28;20468;-73
2021/12/20 02:50:05;;;;;;;20.30;10.57;;;;;;;;;;5113086;28;20441;-73
2021/12/20 02:52:34;;;;;;;20.47;10.37;;;;;;;;;;5114603;28;20922;-73
2021/12/20 02:55:01;;;;;;;23.50;12.07;;;;;;;;;;5116579;28;20479;-73
2021/12/20 02:57:28;;;;;;;21.13;11.70;;;;;;;;;;5116813;28;20460;-72
2021/12/20 02:59:55;;;;;;;22.10;12.43;;;;;;;;;;5116927;28;20449;-73
2021/12/20 03:02:23;;;;;;;21.60;11.17;;;;;;;;;;5116639;28;20489;-73
2021/12/20 03:04:51;;;;;;;23.47;12.00;;;;;;;;;;5116560;28;20469;-73
2021/12/20 03:07:22;;;;;;;23.70;11.77;;;;;;;;;;5116779;28;20529;-73
2021/12/20 03:09:55;;;;;;;23.70;8.53;;;;;;;;;;5116759;28;20457;-73
2021/12/20 03:12:25;;;;;;;23.07;11.03;;;;;;;;;;5116563;28;20954;-73
2021/12/20 03:14:57;;;;;;;24.17;12.67;;;;;;;;;;5115612;28;20496;-73
2021/12/20 03:17:24;;;;;;;22.20;11.37;;;;;;;;;;5116500;28;20526;-72
2021/12/20 03:19:51;;;;;;;19.93;9.63;;;;;;;;;;5116423;28;20453;-73
2021/12/20 03:22:18;;;;;;;20.83;10.50;;;;;;;;;;5116242;28;20512;-73
2021/12/20 03:24:47;;;;;;;27.47;11.13;;;;;;;;;;5115979;28;20480;-73
2021/12/20 03:27:15;;;;;;;21.97;10.37;;;;;;;;;;5116578;28;20911;-73
2021/12/20 03:29:42;;;;;;;28.23;13.17;;;;;;;;;;5116311;28;20450;-73
2021/12/20 03:32:09;;;;;;;24.90;11.40;;;;;;;;;;5116195;28;20441;-73
2021/12/20 03:34:36;;;;;;;22.03;13.13;;;;;;;;;;5115814;28;20461;-73
2021/12/20 03:37:04;;;;;;;22.00;10.40;;;;;;;;;;5115975;28;20454;-73
2021/12/20 03:39:31;;;;;;;27.70;13.97;;;;;;;;;;5116040;28;20820;-73
2021/12/20 03:41:58;;;;;;;31.53;14.47;;;;;;;;;;5116110;28;20997;-73
2021/12/20 03:44:31;;;;;;;27.93;10.90;;;;;;;;;;5115689;28;20485;-73
2021/12/20 03:46:58;;;;;;;24.43;11.47;;;;;;;;;;5116063;28;20445;-74
2021/12/20 03:49:26;;;;;;;22.20;10.00;;;;;;;;;;5115743;28;20452;-73
2021/12/20 03:51:53;;;;;;;21.30;12.50;;;;;;;;;;5115932;28;20934;-73
2021/12/20 03:54:20;;;;;;;28.47;12.50;;;;;;;;;;5115657;28;20466;-73
2021/12/20 03:56:47;;;;;;;33.90;15.63;;;;;;;;;;5116046;28;20456;-73
2021/12/20 03:59:14;;;;;;;26.87;12.50;;;;;;;;;;5115629;28;20452;-73
2021/12/20 04:01:43;;;;;;;31.20;14.00;;;;;;;;;;5115452;28;20446;-73
2021/12/20 04:04:10;;;;;;;25.23;12.40;;;;;;;;;;5114663;28;20555;-73
2021/12/20 04:06:37;;;;;;;26.70;10.87;;;;;;;;;;5115586;28;20464;-73
2021/12/20 04:09:05;;;;;;;21.70;12.13;;;;;;;;;;5115595;28;20926;-73
2021/12/20 04:11:32;;;;;;;27.70;11.60;;;;;;;;;;5115476;28;20452;-73
2021/12/20 04:14:01;;;;;;;32.40;12.80;;;;;;;;;;5115283;28;20892;-73
2021/12/20 04:16:29;;;;;;;23.13;11.10;;;;;;;;;;5114671;28;20461;-74
2021/12/20 04:18:57;;;;;;;22.60;11.83;;;;;;;;;;5115369;28;20972;-73
2021/12/20 04:21:24;;;;;;;26.50;11.30;;;;;;;;;;5115143;28;20441;-73
2021/12/20 04:23:51;;;;;;;23.07;10.03;;;;;;;;;;5114827;28;20490;-74
2021/12/20 04:26:19;;;;;;;19.73;9.60;;;;;;;;;;5115128;28;20458;-73
2021/12/20 04:28:46;;;;;;;19.17;10.97;;;;;;;;;;5115101;28;20449;-73
2021/12/20 04:31:13;;;;;;;21.90;10.83;;;;;;;;;;5115166;28;20540;-73
2021/12/20 04:33:40;;;;;;;19.60;10.20;;;;;;;;;;5114755;28;20448;-73
2021/12/20 04:36:09;;;;;;;23.30;10.80;;;;;;;;;;5114886;28;20473;-73
2021/12/20 04:38:36;;;;;;;24.10;10.23;;;;;;;;;;5114993;28;21025;-73
2021/12/20 04:41:04;;;;;;;19.80;11.70;;;;;;;;;;5114876;28;20794;-73
2021/12/20 04:43:31;;;;;;;25.73;11.03;;;;;;;;;;5114455;28;20492;-73
2021/12/20 04:45:58;;;;;;;21.43;11.77;;;;;;;;;;5114774;28;20852;-73
2021/12/20 04:48:25;;;;;;;20.97;10.90;;;;;;;;;;5114657;28;20441;-73
2021/12/20 04:50:52;;;;;;;24.07;11.00;;;;;;;;;;5114813;28;20978;-73
2021/12/20 04:53:21;;;;;;;27.57;13.17;;;;;;;;;;5114647;28;20945;-73
2021/12/20 04:55:48;;;;;;;17.93;10.30;;;;;;;;;;5114308;28;20474;-73
2021/12/20 04:58:16;;;;;;;24.17;13.17;;;;;;;;;;5114457;28;20813;-73
2021/12/20 05:00:44;;;;;;;26.13;13.10;;;;;;;;;;5114254;28;20934;-73
2021/12/20 05:03:11;;;;;;;27.10;12.90;;;;;;;;;;5114319;28;20485;-73
2021/12/20 05:05:39;;;;;;;19.83;10.17;;;;;;;;;;5114009;28;20470;-73
2021/12/20 05:08:07;;;;;;;28.40;12.00;;;;;;;;;;5114261;28;20450;-73
2021/12/20 05:10:39;;;;;;;25.50;12.00;;;;;;;;;;5114063;28;20503;-73
2021/12/20 05:13:07;;;;;;;26.27;12.90;;;;;;;;;;5114423;28;20450;-73
2021/12/20 05:15:35;;;;;;;28.10;13.17;;;;;;;;;;5112163;28;20580;-73
2021/12/20 05:18:03;;;;;;;29.03;13.63;;;;;;;;;;5114241;28;20831;-73
2021/12/20 05:20:30;;;;;;;24.80;11.83;;;;;;;;;;5114191;28;20801;-73
2021/12/20 05:22:57;;;;;;;25.13;12.30;;;;;;;;;;5114147;28;20993;-73
2021/12/20 05:25:25;;;;;;;25.83;13.27;;;;;;;;;;5113721;28;20468;-73
2021/12/20 05:27:54;;;;;;;25.70;13.20;;;;;;;;;;5114170;28;20815;-73
2021/12/20 05:30:21;;;;;;;24.30;12.80;;;;;;;;;;5114033;28;20454;-73
2021/12/20 05:32:48;;;;;;;25.53;12.57;;;;;;;;;;5113866;28;20468;-73
2021/12/20 05:35:16;;;;;;;24.60;12.20;;;;;;;;;;5113632;28;20476;-73
2021/12/20 05:37:43;;;;;;;32.87;15.33;;;;;;;;;;5113657;28;20461;-73
2021/12/20 05:40:11;;;;;;;32.70;13.57;;;;;;;;;;5113770;28;20469;-73
2021/12/20 05:42:38;;;;;;;26.03;14.10;;;;;;;;;;5113461;28;20485;-73
2021/12/20 05:45:08;;;;;;;26.47;13.50;;;;;;;;;;5113529;28;20462;-73
2021/12/20 05:47:36;;;;;;;22.50;12.47;;;;;;;;;;5113640;28;20933;-73
2021/12/20 05:50:04;;;;;;;24.00;11.90;;;;;;;;;;5113621;28;20942;-73
2021/12/20 05:52:31;;;;;;;35.00;13.00;;;;;;;;;;5113450;28;20456;-73
2021/12/20 05:54:58;;;;;;;26.43;12.40;;;;;;;;;;5113485;28;20462;-73
2021/12/20 05:57:25;;;;;;;30.87;13.37;;;;;;;;;;5113375;28;20452;-73
2021/12/20 05:59:52;;;;;;;20.57;11.10;;;;;;;;;;5113790;28;20956;-73
2021/12/20 06:02:21;;;;;;;25.40;13.10;;;;;;;;;;5113531;28;20918;-73
2021/12/20 06:04:50;;;;;;;27.33;12.50;;;;;;;;;;5113067;28;20473;-73
2021/12/20 06:07:18;;;;;;;25.50;13.00;;;;;;;;;;5113324;28;20453;-73
2021/12/20 06:09:45;;;;;;;28.20;13.43;;;;;;;;;;5113126;28;20477;-73
2021/12/20 06:12:12;;;;;;;26.60;12.87;;;;;;;;;;5113523;28;20934;-73
2021/12/20 06:14:39;;;;;;;26.40;13.03;;;;;;;;;;5112482;28;20965;-73
2021/12/20 06:17:07;;;;;;;27.63;11.23;;;;;;;;;;5113243;28;20816;-73
2021/12/20 06:19:35;;;;;;;25.53;13.03;;;;;;;;;;5113257;28;20942;-73
2021/12/20 06:22:04;;;;;;;25.20;12.13;;;;;;;;;;5113342;28;20930;-73
2021/12/20 06:24:31;;;;;;;22.80;11.70;;;;;;;;;;5113047;28;20494;-73
2021/12/20 06:26:58;;;;;;;27.57;14.33;;;;;;;;;;5114075;28;20457;-73
2021/12/20 06:29:25;;;;;;;27.17;14.13;;;;;;;;;;5117530;28;20918;-73
2021/12/20 06:31:53;;;;;;;27.00;14.43;;;;;;;;;;5117506;28;20457;-73
2021/12/20 06:34:20;;;;;;;34.33;14.90;;;;;;;;;;5117112;28;20495;-73
2021/12/20 06:36:48;;;;;;;30.60;15.80;;;;;;;;;;5117370;28;20937;-73
2021/12/20 06:39:16;;;;;;;31.40;13.87;;;;;;;;;;5117163;28;20449;-73
2021/12/20 06:41:43;;;;;;;30.83;15.27;;;;;;;;;;5117167;28;20453;-73
2021/12/20 06:44:11;;;;;;;35.83;13.37;;;;;;;;;;5116774;28;20836;-73
2021/12/20 06:46:40;;;;;;;39.10;15.63;;;;;;;;;;5116875;28;20460;-73
2021/12/20 06:49:09;;;;;;;33.63;13.20;;;;;;;;;;5117004;28;20457;-73
2021/12/20 06:51:39;;;;;;;30.23;15.17;;;;;;;;;;5116993;28;20997;-73
2021/12/20 06:54:08;;;;;;;27.17;13.40;;;;;;;;;;5116706;28;21057;-73
2021/12/20 06:56:35;;;;;;;31.43;15.20;;;;;;;;;;5116789;28;20934;-73
2021/12/20 06:59:02;;;;;;;32.10;14.30;;;;;;;;;;5116774;28;20445;-73
2021/12/20 07:01:29;;;;;;;27.47;13.57;;;;;;;;;;5116764;28;20448;-73
2021/12/20 07:03:56;;;;;;;28.97;13.93;;;;;;;;;;5116695;28;20485;-73
2021/12/20 07:06:24;;;;;;;36.93;15.10;;;;;;;;;;5116542;28;20458;-73
2021/12/20 07:08:51;;;;;;;29.20;13.30;;;;;;;;;;5116815;28;20931;-73
2021/12/20 07:11:19;;;;;;;41.20;18.50;;;;;;;;;;5116597;28;20448;-73
2021/12/20 07:13:46;;;;;;;23.77;12.10;;;;;;;;;;5116248;28;20472;-73
2021/12/20 07:16:14;;;;;;;32.17;14.10;;;;;;;;;;5116074;28;20467;-73
2021/12/20 07:18:41;;;;;;;35.83;15.47;;;;;;;;;;5116428;28;20492;-73
2021/12/20 07:21:08;;;;;;;24.30;12.87;;;;;;;;;;5116470;28;20454;-73
2021/12/20 07:23:35;;;;;;;28.73;13.23;;;;;;;;;;5115995;28;20816;-73
2021/12/20 07:26:03;;;;;;;29.70;13.07;;;;;;;;;;5116249;28;20465;-73
2021/12/20 07:28:31;;;;;;;33.70;15.67;;;;;;;;;;5116171;28;20453;-73
2021/12/20 07:30:59;;;;;;;35.20;14.70;;;;;;;;;;5116298;28;20449;-73
2021/12/20 07:33:26;;;;;;;31.20;14.40;;;;;;;;;;5116176;28;20445;-73
2021/12/20 07:35:53;;;;;;;32.27;13.10;;;;;;;;;;5116176;28;20984;-72
2021/12/20 07:38:20;;;;;;;29.57;14.80;;;;;;;;;;5104796;28;20459;-73
2021/12/20 07:40:48;;;;;;;27.07;13.83;;;;;;;;;;5093847;28;20462;-73
2021/12/20 07:43:16;;;;;;;30.40;15.00;;;;;;;;;;5094136;28;20493;-73
2021/12/20 07:45:47;;;;;;;23.90;13.17;;;;;;;;;;5093881;28;20862;-73
2021/12/20 07:48:14;;;;;;;26.17;12.97;;;;;;;;;;5094874;28;20545;-73
2021/12/20 07:50:41;;;;;;;26.67;13.30;;;;;;;;;;5095338;28;20455;-73
2021/12/20 07:53:08;;;;;;;30.90;14.53;;;;;;;;;;5095173;28;20443;-73
2021/12/20 07:55:35;;;;;;;24.50;12.40;;;;;;;;;;5095102;28;20470;-73
2021/12/20 07:58:02;;;;;;;27.47;13.23;;;;;;;;;;5095417;28;20435;-73
2021/12/20 08:00:30;;;;;;;22.10;12.10;;;;;;;;;;5095225;28;20455;-73
2021/12/20 08:02:58;;;;;;;28.43;13.27;;;;;;;;;;5095330;28;20470;-73
2021/12/20 08:05:26;;;;;;;25.13;13.70;;;;;;;;;;5094849;28;20491;-73
2021/12/20 08:07:53;;;;;;;33.80;16.07;;;;;;;;;;5095206;28;20459;-74
2021/12/20 08:10:21;;;;;;;25.67;15.40;;;;;;;;;;5095123;28;20451;-74
2021/12/20 08:12:48;;;;;;;29.90;13.47;;;;;;;;;;5095053;28;20959;-73
2021/12/20 08:15:15;;;;;;;28.13;13.13;;;;;;;;;;5093945;28;20474;-73
2021/12/20 08:17:42;;;;;;;28.43;13.43;;;;;;;;;;5094792;28;20443;-73
2021/12/20 08:20:12;;;;;;;30.87;15.57;;;;;;;;;;5095081;28;20447;-73
2021/12/20 08:22:39;;;;;;;25.70;13.20;;;;;;;;;;5094739;28;20459;-73
2021/12/20 08:25:07;;;;;;;30.10;13.50;;;;;;;;;;5094359;28;20490;-73
2021/12/20 08:27:35;;;;;;;26.40;12.93;;;;;;;;;;5094604;28;20939;-73
2021/12/20 08:30:02;;;;;;;167.73;77.50;;;;;;;;;;5094741;28;21073;-73
2021/12/20 08:32:29;;;;;;;34.53;17.93;;;;;;;;;;5094639;28;20442;-73
2021/12/20 08:34:56;;;;;;;29.70;15.47;;;;;;;;;;5094397;28;20993;-73
2021/12/20 08:37:25;;;;;;;24.33;11.90;;;;;;;;;;5094388;28;20457;-73
2021/12/20 08:39:52;;;;;;;25.13;13.17;;;;;;;;;;5094354;28;20455;-73
2021/12/20 08:42:20;;;;;;;28.10;14.10;;;;;;;;;;5094539;28;20805;-73
2021/12/20 08:44:47;;;;;;;26.50;12.50;;;;;;;;;;5094039;28;20494;-73
2021/12/20 08:47:14;;;;;;;25.93;13.33;;;;;;;;;;5094163;28;20474;-73
2021/12/20 08:49:42;;;;;;;29.97;15.17;;;;;;;;;;5094003;28;20446;-73
2021/12/20 08:52:09;;;;;;;25.50;12.40;;;;;;;;;;5094293;28;20465;-73
2021/12/20 08:54:38;;;;;;;34.77;17.47;;;;;;;;;;5093834;28;20470;-73
2021/12/20 08:57:07;;;;;;;27.47;14.53;;;;;;;;;;5094320;28;20924;-73
2021/12/20 08:59:35;;;;;;;30.47;13.87;;;;;;;;;;5093985;28;21019;-73
2021/12/20 09:02:04;;;;;;;22.17;11.27;;;;;;;;;;5094139;28;20475;-73
2021/12/20 09:04:31;;;;;;;21.37;11.30;;;;;;;;;;5093799;28;21029;-73
2021/12/20 09:06:58;;;;;;;22.60;13.17;;;;;;;;;;5094058;28;20458;-73
2021/12/20 09:09:25;;;;;;;25.00;11.60;;;;;;;;;;5093946;28;20451;-73
2021/12/20 09:11:54;;;;;;;24.27;11.47;;;;;;;;;;5093910;28;20947;-73
2021/12/20 09:14:21;;;;;;;25.83;10.87;;;;;;;;;;5093524;28;20471;-74
2021/12/20 09:16:48;;;;;;;22.30;11.40;;;;;;;;;;5093857;28;20458;-73
2021/12/20 09:19:15;;;;;;;23.80;12.97;;;;;;;;;;5093933;28;20446;-73
2021/12/20 09:21:42;;;;;;;24.63;12.83;;;;;;;;;;5093900;28;20450;-73
2021/12/20 09:24:10;;;;;;;23.60;13.10;;;;;;;;;;5093476;28;20490;-73
2021/12/20 09:26:37;;;;;;;23.70;13.50;;;;;;;;;;5093655;28;20977;-73
2021/12/20 09:29:05;;;;;;;19.87;11.67;;;;;;;;;;5093678;28;20454;-73
2021/12/20 09:31:32;;;;;;;23.77;13.23;;;;;;;;;;5093479;28;20457;-73
2021/12/20 09:34:00;;;;;;;26.00;13.20;;;;;;;;;;5093261;28;20443;-73
2021/12/20 09:36:29;;;;;;;26.37;12.10;;;;;;;;;;5093422;28;20461;-73
2021/12/20 09:38:57;;;;;;;27.10;12.57;;;;;;;;;;5093586;28;20450;-73
2021/12/20 09:44:07;;;;;;;23.70;12.60;;;;;;;;;;5079891;28;20486;-73
2021/12/20 09:46:34;;;;;;;31.40;14.07;;;;;;;;;;5093274;28;20462;-73
2021/12/20 09:49:03;;;;;;;23.63;12.37;;;;;;;;;;5093708;28;20466;-73
2021/12/20 09:51:30;;;;;;;23.20;12.30;;;;;;;;;;5093280;28;20870;-73
2021/12/20 09:53:57;;;;;;;23.83;11.90;;;;;;;;;;5092993;28;20457;-73
2021/12/20 09:56:24;;;;;;;48.43;18.47;;;;;;;;;;5093179;28;20454;-73
2021/12/20 09:58:53;;;;;;;32.50;16.10;;;;;;;;;;5093282;28;20450;-73
2021/12/20 10:01:23;;;;;;;33.00;14.60;;;;;;;;;;5092752;28;20455;-73
2021/12/20 10:03:50;;;;;;;23.60;13.67;;;;;;;;;;5092763;28;20486;-73
2021/12/20 10:06:18;;;;;;;24.43;12.97;;;;;;;;;;5093084;28;20501;-73
2021/12/20 10:08:50;;;;;;;32.17;15.40;;;;;;;;;;5093073;28;20870;-73
2021/12/20 10:11:21;;;;;;;23.23;9.70;;;;;;;;;;5093101;28;20871;-73
2021/12/20 10:13:48;;;;;;;20.40;10.20;;;;;;;;;;5092665;28;20451;-73
2021/12/20 10:16:17;;;;;;;14.93;9.07;;;;;;;;;;5092635;28;20458;-73
2021/12/20 10:18:45;;;;;;;18.30;9.53;;;;;;;;;;5093061;28;20456;-73
2021/12/20 10:21:12;;;;;;;14.20;8.13;;;;;;;;;;5093162;28;20457;-73
2021/12/20 10:23:40;;;;;;;13.70;7.53;;;;;;;;;;5092684;28;20447;-73
2021/12/20 10:26:12;;;;;;;16.80;8.00;;;;;;;;;;5092897;28;20512;-73
2021/12/20 10:28:40;;;;;;;14.20;8.30;;;;;;;;;;5092893;28;20521;-73
2021/12/20 10:31:08;;;;;;;16.83;9.70;;;;;;;;;;5092914;28;20454;-73
2021/12/20 10:33:36;;;;;;;12.93;6.90;;;;;;;;;;5092531;28;20451;-73
2021/12/20 10:36:06;;;;;;;15.33;9.17;;;;;;;;;;5092844;28;20847;-73
2021/12/20 10:38:37;;;;;;;15.50;8.40;;;;;;;;;;5092870;28;20461;-73
2021/12/20 10:41:06;;;;;;;15.77;8.87;;;;;;;;;;5074815;28;20545;-73
2021/12/20 10:43:36;;;;;;;16.47;8.23;;;;;;;;;;5092597;28;20876;-73
2021/12/20 10:46:10;;;;;;;34.63;18.93;;;;;;;;;;5092735;28;20562;-73
2021/12/20 10:48:37;;;;;;;16.50;9.23;;;;;;;;;;5092729;28;20935;-73
2021/12/20 10:51:06;;;;;;;15.23;8.57;;;;;;;;;;5092750;28;20435;-73
2021/12/20 10:53:33;;;;;;;10.50;7.07;;;;;;;;;;5092606;28;20962;-73
2021/12/20 10:56:02;;;;;;;30.70;16.93;;;;;;;;;;5092681;28;20810;-73
2021/12/20 10:58:34;;;;;;;11.40;7.13;;;;;;;;;;5092495;28;20967;-73
2021/12/20 11:01:15;;;;;;;56.23;29.70;;;;;;;;;;5092558;28;20443;-73
2021/12/20 11:03:43;;;;;;;14.47;8.60;;;;;;;;;;5092508;28;20450;-73
2021/12/20 11:06:41;;;;;;;14.20;7.97;;;;;;;;;;5092634;28;20539;-73
2021/12/20 11:09:13;;;;;;;13.27;6.73;;;;;;;;;;5092920;28;20469;-73
2021/12/20 11:11:41;;;;;;;22.33;13.20;;;;;;;;;;5092606;28;20542;-73
2021/12/20 11:14:10;;;;;;;30.27;15.67;;;;;;;;;;5094753;28;20493;-73
2021/12/20 11:16:38;;;;;;;46.87;22.33;;;;;;;;;;5095687;28;20889;-73
2021/12/20 11:19:13;;;;;;;36.10;18.27;;;;;;;;;;5096287;28;20446;-73
2021/12/20 11:21:46;;;;;;;9.63;6.03;;;;;;;;;;5095950;28;20934;-73
2021/12/20 11:24:14;;;;;;;17.43;8.87;;;;;;;;;;5095848;28;20524;-73
2021/12/20 11:26:42;;;;;;;13.00;7.20;;;;;;;;;;5095913;28;20808;-73
2021/12/20 11:29:09;;;;;;;15.67;9.20;;;;;;;;;;5096008;28;20447;-73
2021/12/20 11:31:37;;;;;;;12.70;6.60;;;;;;;;;;5095797;28;20454;-73
2021/12/20 11:34:05;;;;;;;14.67;5.60;;;;;;;;;;5095577;28;20990;-73
2021/12/20 11:36:32;;;;;;;23.47;13.27;;;;;;;;;;5095706;28;20446;-73
2021/12/20 11:39:02;;;;;;;14.77;6.40;;;;;;;;;;5095873;28;20454;-73
2021/12/20 11:41:30;;;;;;;10.67;5.83;;;;;;;;;;5095750;28;20872;-73
2021/12/20 11:43:58;;;;;;;9.43;5.20;;;;;;;;;;5095414;28;20449;-73
2021/12/20 11:46:26;;;;;;;18.03;7.00;;;;;;;;;;5095394;28;20489;-73
2021/12/20 11:48:54;;;;;;;9.07;5.23;;;;;;;;;;5095616;28;20459;-73
2021/12/20 11:51:21;;;;;;;9.20;5.87;;;;;;;;;;5095390;28;20465;-73
2021/12/20 11:53:48;;;;;;;8.60;5.50;;;;;;;;;;5095122;28;20446;-73
2021/12/20 11:56:20;;;;;;;13.73;7.83;;;;;;;;;;5095353;28;20454;-73
2021/12/20 11:58:48;;;;;;;8.63;4.30;;;;;;;;;;5095409;28;20447;-73
2021/12/20 12:01:16;;;;;;;10.10;4.87;;;;;;;;;;5095295;28;20446;-73
2021/12/20 12:03:52;;;;;;;9.97;6.23;;;;;;;;;;5095058;28;20949;-73
2021/12/20 12:06:24;;;;;;;9.07;3.93;;;;;;;;;;5095237;28;20493;-73
2021/12/20 12:08:57;;;;;;;20.03;3.43;;;;;;;;;;5095246;28;20446;-73
2021/12/20 12:11:33;;;;;;;7.53;4.30;;;;;;;;;;5095097;28;20889;-73
2021/12/20 12:14:34;;;;;;;5.10;3.67;;;;;;;;;;5094911;28;20454;-73
2021/12/20 12:17:04;;;;;;;7.70;4.40;;;;;;;;;;5094958;28;20458;-73
2021/12/20 12:19:39;;;;;;;7.93;4.90;;;;;;;;;;5094889;28;20446;-73
2021/12/20 12:22:31;;;;;;;9.23;4.30;;;;;;;;;;5094899;28;20469;-73
2021/12/20 12:24:58;;;;;;;6.77;4.60;;;;;;;;;;5094121;28;20496;-73
2021/12/20 12:27:28;;;;;;;22.17;5.47;;;;;;;;;;5094780;28;20814;-73
2021/12/20 12:30:14;;;;;;;16.87;7.43;;;;;;;;;;5094881;28;20482;-72
2021/12/20 12:33:06;;;;;;;7.87;5.10;;;;;;;;;;5094497;28;20469;-73
2021/12/20 12:35:47;;;;;;;6.80;4.30;;;;;;;;;;5094112;28;20474;-73
2021/12/20 12:38:15;;;;;;;7.97;4.27;;;;;;;;;;5094497;28;20461;-73
2021/12/20 12:40:45;;;;;;;7.43;4.23;;;;;;;;;;5094513;28;20458;-73
2021/12/20 12:43:16;;;;;;;5.30;4.17;;;;;;;;;;5094933;28;20537;-73
2021/12/20 12:45:50;;;;;;;10.63;4.53;;;;;;;;;;5094033;28;20494;-73
2021/12/20 12:48:39;;;;;;;13.73;4.97;;;;;;;;;;5094264;28;20545;-73
2021/12/20 12:51:07;;;;;;;5.03;3.73;;;;;;;;;;5094331;28;20924;-73
2021/12/20 12:53:41;;;;;;;12.70;4.77;;;;;;;;;;5094044;28;20458;-73
2021/12/20 12:56:27;;;;;;;8.80;3.43;;;;;;;;;;5094213;28;20840;-73
2021/12/20 12:59:09;;;;;;;7.40;3.70;;;;;;;;;;5094206;28;20458;-72
2021/12/20 13:01:39;;;;;;;8.23;4.23;;;;;;;;;;5093235;28;20454;-73
2021/12/20 13:04:06;;;;;;;10.13;4.33;;;;;;;;;;5093996;28;20565;-73
2021/12/20 13:06:33;;;;;;;11.87;7.60;;;;;;;;;;5093907;28;20487;-73
2021/12/20 13:09:01;;;;;;;6.40;4.10;;;;;;;;;;5093972;28;20451;-73
2021/12/20 13:11:30;;;;;;;12.30;3.30;;;;;;;;;;5094094;28;20957;-73
2021/12/20 13:14:07;;;;;;;4.73;3.60;;;;;;;;;;5093419;28;20549;-72
2021/12/20 13:16:37;;;;;;;6.33;4.10;;;;;;;;;;5093122;28;20541;-72
2021/12/20 13:19:06;;;;;;;7.10;3.30;;;;;;;;;;5094036;28;20816;-72
2021/12/20 13:21:49;;;;;;;6.40;4.33;;;;;;;;;;5093700;28;20454;-73
2021/12/20 13:24:17;;;;;;;9.13;3.33;;;;;;;;;;5093452;28;20506;-73
2021/12/20 13:26:44;;;;;;;4.47;3.70;;;;;;;;;;5093407;28;20486;-73
2021/12/20 13:29:16;;;;;;;6.90;4.73;;;;;;;;;;5093745;28;20455;-72
2021/12/20 13:31:44;;;;;;;10.70;4.50;;;;;;;;;;5093706;28;20454;-72
2021/12/20 13:34:14;;;;;;;8.30;4.87;;;;;;;;;;5093406;28;20524;-72
2021/12/20 13:36:50;;;;;;;7.13;4.70;;;;;;;;;;5092590;28;20576;-73
2021/12/20 13:39:18;;;;;;;12.20;4.63;;;;;;;;;;5093697;28;20822;-72
2021/12/20 13:41:45;;;;;;;7.10;4.60;;;;;;;;;;5093532;28;20457;-73
2021/12/20 13:44:14;;;;;;;7.70;3.60;;;;;;;;;;5093071;28;20548;-73
2021/12/20 13:46:43;;;;;;;10.07;4.17;;;;;;;;;;5093203;28;20486;-73
2021/12/20 13:49:11;;;;;;;13.33;4.53;;;;;;;;;;5093330;28;20481;-73
2021/12/20 13:51:42;;;;;;;9.73;5.00;;;;;;;;;;5093131;28;20952;-73
2021/12/20 13:54:20;;;;;;;7.17;3.60;;;;;;;;;;5093394;28;20478;-73
2021/12/20 13:56:51;;;;;;;9.13;4.67;;;;;;;;;;5093168;28;20459;-73
2021/12/20 13:59:22;;;;;;;5.30;4.00;;;;;;;;;;5093233;28;20483;-73
2021/12/20 14:01:49;;;;;;;14.83;6.00;;;;;;;;;;5093291;28;20453;-73
2021/12/20 14:04:26;;;;;;;9.67;4.20;;;;;;;;;;5092973;28;20516;-73
2021/12/20 14:06:57;;;;;;;17.10;5.87;;;;;;;;;;5093224;28;20482;-73
2021/12/20 14:09:34;;;;;;;7.10;4.23;;;;;;;;;;5092951;28;20465;-73
2021/12/20 14:12:09;;;;;;;10.80;5.07;;;;;;;;;;5093198;28;20486;-73
2021/12/20 14:14:36;;;;;;;11.30;4.60;;;;;;;;;;5091944;28;20489;-73
2021/12/20 14:17:04;;;;;;;7.67;3.73;;;;;;;;;;5093100;28;20518;-73
2021/12/20 14:19:50;;;;;;;5.80;4.57;;;;;;;;;;5092907;28;20446;-73
2021/12/20 14:22:20;;;;;;;9.83;4.93;;;;;;;;;;5092794;28;20963;-73
2021/12/20 14:24:47;;;;;;;19.40;5.53;;;;;;;;;;5093033;28;20878;-73
2021/12/20 14:27:16;;;;;;;10.07;5.40;;;;;;;;;;5092929;28;20490;-73
2021/12/20 14:29:43;;;;;;;7.33;5.40;;;;;;;;;;5092823;28;20470;-73
2021/12/20 14:32:13;;;;;;;7.80;4.67;;;;;;;;;;5092835;28;20438;-73
2021/12/20 14:34:41;;;;;;;5.20;4.27;;;;;;;;;;5092501;28;20470;-73
2021/12/20 14:37:08;;;;;;;6.30;3.80;;;;;;;;;;5093082;28;20445;-73
2021/12/20 14:39:43;;;;;;;7.20;3.83;;;;;;;;;;5092759;28;20458;-73
2021/12/20 14:42:10;;;;;;;4.70;3.60;;;;;;;;;;5092842;28;20457;-73
2021/12/20 14:44:46;;;;;;;17.53;4.80;;;;;;;;;;5092508;28;20542;-73
2021/12/20 14:47:26;;;;;;;7.63;4.37;;;;;;;;;;5092645;28;20582;-73